createdAt,value
2023-03-02T00:00:03.114Z,24.16
2023-03-02T00:01:05.801Z,20.49
2023-03-02T00:02:08.375Z,18.64
2023-03-02T00:03:11.177Z,21.55
2023-03-02T00:04:13.729Z,23.67
2023-03-02T00:05:16.190Z,19.62
2023-03-02T00:06:18.756Z,19.60
2023-03-02T00:07:21.339Z,20.93
2023-03-02T00:08:23.907Z,18.40
2023-03-02T00:09:26.492Z,25.65
2023-03-02T00:10:29.145Z,22.79
2023-03-02T00:11:31.702Z,22.13
2023-03-02T00:12:34.294Z,19.11
2023-03-02T00:13:36.900Z,18.97
2023-03-02T00:14:39.465Z,15.88
2023-03-02T00:15:42.186Z,21.11
2023-03-02T00:16:45.201Z,18.98
2023-03-02T00:17:47.760Z,18.86
2023-03-02T00:18:50.315Z,21.49
2023-03-02T00:19:52.952Z,22.69
2023-03-02T00:20:55.608Z,17.99
2023-03-02T00:21:58.160Z,21.19
2023-03-02T00:23:00.792Z,19.93
2023-03-02T00:24:03.392Z,17.13
2023-03-02T00:25:06.008Z,17.87
2023-03-02T00:26:08.957Z,17.06
2023-03-02T00:27:11.543Z,16.89
2023-03-02T00:28:14.123Z,14.38
2023-03-02T00:29:16.700Z,18.99
2023-03-02T00:30:19.541Z,19.13
2023-03-02T00:31:22.171Z,17.25
2023-03-02T00:32:24.972Z,8.43
2023-03-02T00:33:27.514Z,19.75
2023-03-02T00:34:30.277Z,18.87
2023-03-02T00:35:32.987Z,16.82
2023-03-02T00:36:35.918Z,17.87
2023-03-02T00:37:38.796Z,18.46
2023-03-02T00:38:41.369Z,18.01
2023-03-02T00:39:43.949Z,20.43
2023-03-02T00:40:46.608Z,11.34
2023-03-02T00:41:49.511Z,16.62
2023-03-02T00:42:52.050Z,16.63
2023-03-02T00:43:54.653Z,21.21
2023-03-02T00:44:57.187Z,16.38
2023-03-02T00:45:59.787Z,11.87
2023-03-02T00:47:02.715Z,16.27
2023-03-02T00:48:05.624Z,16.04
2023-03-02T00:49:08.186Z,15.55
2023-03-02T00:50:11.851Z,13.65
2023-03-02T00:51:14.312Z,15.39
2023-03-02T00:52:16.873Z,13.66
2023-03-02T00:53:19.461Z,12.47
2023-03-02T00:54:22.006Z,14.82
2023-03-02T00:55:24.574Z,15.49
2023-03-02T00:56:27.242Z,14.22
2023-03-02T00:57:29.706Z,13.42
2023-03-02T00:58:32.183Z,13.19
2023-03-02T00:59:34.734Z,10.66
2023-03-02T01:00:37.603Z,19.76
2023-03-02T01:01:40.201Z,13.89
2023-03-02T01:02:42.960Z,13.24
2023-03-02T01:03:45.745Z,13.79
2023-03-02T01:04:48.301Z,12.83
2023-03-02T01:05:50.857Z,14.03
2023-03-02T01:06:53.685Z,18.38
2023-03-02T01:07:56.240Z,10.65
2023-03-02T01:08:58.878Z,10.45
2023-03-02T01:10:01.543Z,8.62
2023-03-02T01:11:04.404Z,14.01
2023-03-02T01:12:07.329Z,11.25
2023-03-02T01:13:09.998Z,11.65
2023-03-02T01:14:12.547Z,12.13
2023-03-02T01:15:15.101Z,10.61
2023-03-02T01:16:18.134Z,12.71
2023-03-02T01:17:20.938Z,19.96
2023-03-02T01:18:23.510Z,12.09
2023-03-02T01:19:26.311Z,14.41
2023-03-02T01:20:28.931Z,18.60
2023-03-02T01:21:31.554Z,9.07
2023-03-02T01:22:34.142Z,13.19
2023-03-02T01:23:36.704Z,12.17
2023-03-02T01:24:39.232Z,15.15
2023-03-02T01:25:41.789Z,11.12
2023-03-02T01:26:44.665Z,11.61
2023-03-02T01:27:47.235Z,10.57
2023-03-02T01:28:50.739Z,14.11
2023-03-02T01:29:53.579Z,12.24
2023-03-02T01:30:56.235Z,10.81
2023-03-02T01:31:58.937Z,13.39
2023-03-02T01:33:01.570Z,7.08
2023-03-02T01:34:04.155Z,12.87
2023-03-02T01:35:06.731Z,17.55
2023-03-02T01:36:10.496Z,10.62
2023-03-02T01:37:12.884Z,10.65
2023-03-02T01:38:15.552Z,13.19
2023-03-02T01:39:18.254Z,8.91
2023-03-02T01:40:21.217Z,19.40
2023-03-02T01:41:23.884Z,8.03
2023-03-02T01:42:26.444Z,13.03
2023-03-02T01:43:29.040Z,9.94
2023-03-02T01:44:31.579Z,11.23
2023-03-02T01:45:34.146Z,9.31
2023-03-02T01:46:37.007Z,11.63
2023-03-02T01:47:39.786Z,13.31
2023-03-02T01:48:42.258Z,9.59
2023-03-02T01:49:44.850Z,12.93
2023-03-02T01:50:47.612Z,13.90
2023-03-02T01:51:50.169Z,18.42
2023-03-02T01:52:54.283Z,14.14
2023-03-02T01:53:56.892Z,12.55
2023-03-02T01:54:59.463Z,8.07
2023-03-02T01:56:02.440Z,14.47
2023-03-02T01:57:05.004Z,13.83
2023-03-02T01:58:07.615Z,8.18
2023-03-02T01:59:10.172Z,3.46
2023-03-02T02:00:13.142Z,11.33
2023-03-02T02:01:15.873Z,6.95
2023-03-02T02:02:18.469Z,11.97
2023-03-02T02:03:21.162Z,10.34
2023-03-02T02:04:24.062Z,8.82
2023-03-02T02:05:26.571Z,12.95
2023-03-02T02:06:29.271Z,8.38
2023-03-02T02:07:31.781Z,8.45
2023-03-02T02:08:34.380Z,16.29
2023-03-02T02:09:36.843Z,9.73
2023-03-02T02:10:39.497Z,7.31
2023-03-02T02:11:42.091Z,9.15
2023-03-02T02:12:44.651Z,6.20
2023-03-02T02:13:47.212Z,12.35
2023-03-02T02:14:49.786Z,7.05
2023-03-02T02:15:52.368Z,4.22
2023-03-02T02:16:55.304Z,7.08
2023-03-02T02:17:57.893Z,6.84
2023-03-02T02:19:00.587Z,7.49
2023-03-02T02:20:03.288Z,8.72
2023-03-02T02:21:06.231Z,8.04
2023-03-02T02:22:08.804Z,7.67
2023-03-02T02:23:11.360Z,4.06
2023-03-02T02:24:13.929Z,6.62
2023-03-02T02:25:16.529Z,8.86
2023-03-02T02:26:19.310Z,3.80
2023-03-02T02:27:21.879Z,7.69
2023-03-02T02:28:24.488Z,6.84
2023-03-02T02:29:27.059Z,7.98
2023-03-02T02:30:29.652Z,12.63
2023-03-02T02:31:32.254Z,6.96
2023-03-02T02:32:34.896Z,12.09
2023-03-02T02:33:37.675Z,7.81
2023-03-02T02:34:40.215Z,8.13
2023-03-02T02:35:42.928Z,5.07
2023-03-02T02:36:45.979Z,4.26
2023-03-02T02:37:48.543Z,10.85
2023-03-02T02:38:51.154Z,6.62
2023-03-02T02:39:53.729Z,8.32
2023-03-02T02:40:56.615Z,5.27
2023-03-02T02:41:59.152Z,6.01
2023-03-02T02:43:01.717Z,8.25
2023-03-02T02:44:04.282Z,7.05
2023-03-02T02:45:06.876Z,7.94
2023-03-02T02:46:09.619Z,9.09
2023-03-02T02:47:12.172Z,6.63
2023-03-02T02:48:14.731Z,12.70
2023-03-02T02:49:17.291Z,9.11
2023-03-02T02:50:20.022Z,7.89
2023-03-02T02:51:22.910Z,8.71
2023-03-02T02:52:25.444Z,9.06
2023-03-02T02:53:27.889Z,6.97
2023-03-02T02:54:30.448Z,6.33
2023-03-02T02:55:33.129Z,9.63
2023-03-02T02:56:35.796Z,9.67
2023-03-02T02:57:38.331Z,6.57
2023-03-02T02:58:40.901Z,8.36
2023-03-02T02:59:43.460Z,6.11
2023-03-02T03:00:46.422Z,7.63
2023-03-02T03:01:48.938Z,9.07
2023-03-02T03:02:51.543Z,5.61
2023-03-02T03:03:54.076Z,5.05
2023-03-02T03:04:56.614Z,4.85
2023-03-02T03:05:59.182Z,5.13
2023-03-02T03:07:01.846Z,7.61
2023-03-02T03:08:04.408Z,6.37
2023-03-02T03:09:06.984Z,6.60
2023-03-02T03:10:10.170Z,5.97
2023-03-02T03:11:12.750Z,6.31
2023-03-02T03:12:15.317Z,4.45
2023-03-02T03:13:17.870Z,6.33
2023-03-02T03:14:20.430Z,6.11
2023-03-02T03:15:22.994Z,6.36
2023-03-02T03:16:26.195Z,8.36
2023-03-02T03:17:28.795Z,6.15
2023-03-02T03:18:31.349Z,9.56
2023-03-02T03:19:33.907Z,9.93
2023-03-02T03:20:36.461Z,7.19
2023-03-02T03:21:39.022Z,8.01
2023-03-02T03:22:41.628Z,7.96
2023-03-02T03:23:44.257Z,8.14
2023-03-02T03:24:46.794Z,13.15
2023-03-02T03:25:49.357Z,3.39
2023-03-02T03:26:52.228Z,11.69
2023-03-02T03:27:55.085Z,10.49
2023-03-02T03:28:57.708Z,6.86
2023-03-02T03:30:00.297Z,9.47
2023-03-02T03:31:02.966Z,8.56
2023-03-02T03:32:05.536Z,9.81
2023-03-02T03:33:08.235Z,8.64
2023-03-02T03:34:10.820Z,8.53
2023-03-02T03:35:13.365Z,9.33
2023-03-02T03:36:16.445Z,8.61
2023-03-02T03:37:19.005Z,6.67
2023-03-02T03:38:21.559Z,8.57
2023-03-02T03:39:24.137Z,8.67
2023-03-02T03:40:26.904Z,6.89
2023-03-02T03:41:29.462Z,10.81
2023-03-02T03:42:32.033Z,7.49
2023-03-02T03:43:34.609Z,5.21
2023-03-02T03:44:37.173Z,5.18
2023-03-02T03:45:39.726Z,5.03
2023-03-02T03:46:42.679Z,6.11
2023-03-02T03:47:45.240Z,6.91
2023-03-02T03:48:47.808Z,3.71
2023-03-02T03:49:50.372Z,5.95
2023-03-02T03:50:53.241Z,8.35
2023-03-02T03:51:55.796Z,6.60
2023-03-02T03:52:58.364Z,9.11
2023-03-02T03:54:00.960Z,4.85
2023-03-02T03:55:03.569Z,4.89
2023-03-02T03:56:06.637Z,5.05
2023-03-02T03:57:09.239Z,5.05
2023-03-02T03:58:11.909Z,5.72
2023-03-02T03:59:14.430Z,7.03
2023-03-02T04:00:17.339Z,7.61
2023-03-02T04:01:19.964Z,7.69
2023-03-02T04:02:22.698Z,7.06
2023-03-02T04:03:25.326Z,5.95
2023-03-02T04:04:27.731Z,4.80
2023-03-02T04:05:31.684Z,4.74
2023-03-02T04:06:35.200Z,5.17
2023-03-02T04:07:38.173Z,10.21
2023-03-02T04:08:40.740Z,8.89
2023-03-02T04:09:43.302Z,9.87
2023-03-02T04:10:46.257Z,8.73
2023-03-02T04:11:48.828Z,6.04
2023-03-02T04:12:51.380Z,6.80
2023-03-02T04:13:53.950Z,11.29
2023-03-02T04:14:56.532Z,18.41
2023-03-02T04:15:59.128Z,10.15
2023-03-02T04:17:01.976Z,7.52
2023-03-02T04:18:04.549Z,17.89
2023-03-02T04:19:07.129Z,15.34
2023-03-02T04:20:10.162Z,9.67
2023-03-02T04:21:12.957Z,15.95
2023-03-02T04:22:15.559Z,14.16
2023-03-02T04:23:18.123Z,7.91
2023-03-02T04:24:20.677Z,14.77
2023-03-02T04:25:23.104Z,21.81
2023-03-02T04:26:25.873Z,15.21
2023-03-02T04:27:28.464Z,8.37
2023-03-02T04:28:31.045Z,10.12
2023-03-02T04:29:33.609Z,8.73
2023-03-02T04:30:36.280Z,14.07
2023-03-02T04:31:38.863Z,23.71
2023-03-02T04:32:41.682Z,9.66
2023-03-02T04:33:44.289Z,11.46
2023-03-02T04:34:46.875Z,10.09
2023-03-02T04:35:49.500Z,15.15
2023-03-02T04:36:52.289Z,11.32
2023-03-02T04:37:54.894Z,8.67
2023-03-02T04:38:57.497Z,7.49
2023-03-02T04:40:00.082Z,11.43
2023-03-02T04:41:02.620Z,12.37
2023-03-02T04:42:05.176Z,7.51
2023-03-02T04:43:07.702Z,7.30
2023-03-02T04:44:10.270Z,9.92
2023-03-02T04:45:12.837Z,16.17
2023-03-02T04:46:16.060Z,10.61
2023-03-02T04:47:18.570Z,15.89
2023-03-02T04:48:21.153Z,9.66
2023-03-02T04:49:23.855Z,14.43
2023-03-02T04:50:26.665Z,12.16
2023-03-02T04:51:29.238Z,9.08
2023-03-02T04:52:31.814Z,9.11
2023-03-02T04:53:34.360Z,9.07
2023-03-02T04:54:36.932Z,7.99
2023-03-02T04:55:39.505Z,6.15
2023-03-02T04:56:42.366Z,4.82
2023-03-02T04:57:44.929Z,7.65
2023-03-02T04:58:47.523Z,11.73
2023-03-02T04:59:50.072Z,14.11
2023-03-02T05:00:52.731Z,10.75
2023-03-02T05:01:55.405Z,10.13
2023-03-02T05:02:58.089Z,8.09
2023-03-02T05:04:02.820Z,8.03
2023-03-02T05:05:04.964Z,10.94
2023-03-02T05:06:07.955Z,14.76
2023-03-02T05:07:10.606Z,11.46
2023-03-02T05:08:13.170Z,7.85
2023-03-02T05:09:15.669Z,8.75
2023-03-02T05:10:18.344Z,10.92
2023-03-02T05:11:20.905Z,12.53
2023-03-02T05:12:23.480Z,15.26
2023-03-02T05:13:26.082Z,12.21
2023-03-02T05:14:28.666Z,10.72
2023-03-02T05:15:31.223Z,7.45
2023-03-02T05:16:34.522Z,9.97
2023-03-02T05:17:37.346Z,13.69
2023-03-02T05:18:39.942Z,17.23
2023-03-02T05:19:42.541Z,13.78
2023-03-02T05:20:45.330Z,14.01
2023-03-02T05:21:47.992Z,16.07
2023-03-02T05:22:50.541Z,14.23
2023-03-02T05:23:53.001Z,8.60
2023-03-02T05:24:55.559Z,9.99
2023-03-02T05:25:58.119Z,7.22
2023-03-02T05:27:00.679Z,13.85
2023-03-02T05:28:03.432Z,11.83
2023-03-02T05:29:06.403Z,7.42
2023-03-02T05:30:09.671Z,12.99
2023-03-02T05:31:12.324Z,14.47
2023-03-02T05:32:14.901Z,8.02
2023-03-02T05:33:17.442Z,12.13
2023-03-02T05:34:20.111Z,12.26
2023-03-02T05:35:22.798Z,7.80
2023-03-02T05:36:25.640Z,11.79
2023-03-02T05:37:28.518Z,15.29
2023-03-02T05:38:31.080Z,9.80
2023-03-02T05:39:33.627Z,6.57
2023-03-02T05:40:36.293Z,14.97
2023-03-02T05:41:38.871Z,13.66
2023-03-02T05:42:41.437Z,14.59
2023-03-02T05:43:44.030Z,11.61
2023-03-02T05:44:46.578Z,11.03
2023-03-02T05:45:49.145Z,12.77
2023-03-02T05:46:52.099Z,8.83
2023-03-02T05:47:54.764Z,13.72
2023-03-02T05:48:57.414Z,13.19
2023-03-02T05:49:59.865Z,12.77
2023-03-02T05:51:02.469Z,11.69
2023-03-02T05:52:05.074Z,7.65
2023-03-02T05:53:07.693Z,9.99
2023-03-02T05:54:10.253Z,9.54
2023-03-02T05:55:12.880Z,12.51
2023-03-02T05:56:16.066Z,15.08
2023-03-02T05:57:18.640Z,12.18
2023-03-02T05:58:21.189Z,8.84
2023-03-02T05:59:23.754Z,8.87
2023-03-02T06:00:26.723Z,12.96
2023-03-02T06:01:29.274Z,9.27
2023-03-02T06:02:31.836Z,9.59
2023-03-02T06:03:34.446Z,12.61
2023-03-02T06:04:37.026Z,10.15
2023-03-02T06:05:39.580Z,16.65
2023-03-02T06:06:42.406Z,11.91
2023-03-02T06:07:44.968Z,9.06
2023-03-02T06:08:47.562Z,10.96
2023-03-02T06:09:50.126Z,8.65
2023-03-02T06:10:52.812Z,11.52
2023-03-02T06:11:55.400Z,9.04
2023-03-02T06:12:57.872Z,6.72
2023-03-02T06:14:00.430Z,3.75
2023-03-02T06:15:03.090Z,6.61
2023-03-02T06:16:06.044Z,10.08
2023-03-02T06:17:09.174Z,7.33
2023-03-02T06:18:11.749Z,11.46
2023-03-02T06:19:14.291Z,5.89
2023-03-02T06:20:17.110Z,6.16
2023-03-02T06:21:19.676Z,7.46
2023-03-02T06:22:22.266Z,13.56
2023-03-02T06:23:24.757Z,10.78
2023-03-02T06:24:27.337Z,7.57
2023-03-02T06:25:29.809Z,4.51
2023-03-02T06:26:32.830Z,8.39
2023-03-02T06:27:36.128Z,7.27
2023-03-02T06:28:51.611Z,12.89
2023-03-02T06:29:43.069Z,8.35
2023-03-02T06:30:45.940Z,7.74
2023-03-02T06:31:48.632Z,11.00
2023-03-02T06:32:51.481Z,8.08
2023-03-02T06:33:54.204Z,7.95
2023-03-02T06:34:56.755Z,7.56
2023-03-02T06:35:59.370Z,4.68
2023-03-02T06:37:01.936Z,6.36
2023-03-02T06:38:04.723Z,10.67
2023-03-02T06:39:07.313Z,9.19
2023-03-02T06:40:10.313Z,5.01
2023-03-02T06:41:12.838Z,5.70
2023-03-02T06:42:15.668Z,10.14
2023-03-02T06:43:18.232Z,6.97
2023-03-02T06:44:20.787Z,9.78
2023-03-02T06:45:23.558Z,10.32
2023-03-02T06:46:26.458Z,8.86
2023-03-02T06:47:29.342Z,9.37
2023-03-02T06:48:31.899Z,7.84
2023-03-02T06:49:34.509Z,8.65
2023-03-02T06:50:37.289Z,10.74
2023-03-02T06:51:40.025Z,10.47
2023-03-02T06:52:42.582Z,4.95
2023-03-02T06:53:45.175Z,6.34
2023-03-02T06:54:47.742Z,8.79
2023-03-02T06:55:50.344Z,10.19
2023-03-02T06:56:53.077Z,7.15
2023-03-02T06:57:55.613Z,4.57
2023-03-02T06:58:58.205Z,6.06
2023-03-02T07:00:00.744Z,6.50
2023-03-02T07:01:03.319Z,7.81
2023-03-02T07:02:05.889Z,8.60
2023-03-02T07:03:08.442Z,7.95
2023-03-02T07:04:11.047Z,4.60
2023-03-02T07:05:13.645Z,7.95
2023-03-02T07:06:16.403Z,2.91
2023-03-02T07:07:19.289Z,6.47
2023-03-02T07:08:21.884Z,5.87
2023-03-02T07:09:24.479Z,5.60
2023-03-02T07:10:27.034Z,6.57
2023-03-02T07:11:29.594Z,8.35
2023-03-02T07:12:32.162Z,8.47
2023-03-02T07:13:34.773Z,10.33
2023-03-02T07:14:37.366Z,7.05
2023-03-02T07:15:39.984Z,3.73
2023-03-02T07:16:42.915Z,4.34
2023-03-02T07:17:45.469Z,3.75
2023-03-02T07:18:47.941Z,3.25
2023-03-02T07:19:50.488Z,8.07
2023-03-02T07:20:53.167Z,6.62
2023-03-02T07:21:55.906Z,8.91
2023-03-02T07:22:58.415Z,5.77
2023-03-02T07:24:00.970Z,5.66
2023-03-02T07:25:03.537Z,5.79
2023-03-02T07:26:06.807Z,8.52
2023-03-02T07:27:09.407Z,6.74
2023-03-02T07:28:11.982Z,5.90
2023-03-02T07:29:14.525Z,6.80
2023-03-02T07:30:17.491Z,6.88
2023-03-02T07:31:20.098Z,11.21
2023-03-02T07:32:22.686Z,12.37
2023-03-02T07:33:25.549Z,2.13
2023-03-02T07:34:28.126Z,5.04
2023-03-02T07:35:30.682Z,4.35
2023-03-02T07:36:33.730Z,7.33
2023-03-02T07:37:36.305Z,4.48
2023-03-02T07:38:38.831Z,4.01
2023-03-02T07:39:41.400Z,9.13
2023-03-02T07:40:44.171Z,5.26
2023-03-02T07:41:46.733Z,9.24
2023-03-02T07:42:49.306Z,5.19
2023-03-02T07:43:51.915Z,4.41
2023-03-02T07:44:54.475Z,5.74
2023-03-02T07:45:59.476Z,3.27
2023-03-02T07:47:01.451Z,7.54
2023-03-02T07:48:04.012Z,6.27
2023-03-02T07:49:06.574Z,8.85
2023-03-02T07:50:09.771Z,8.52
2023-03-02T07:51:12.302Z,7.02
2023-03-02T07:52:15.013Z,3.89
2023-03-02T07:53:17.594Z,4.75
2023-03-02T07:54:20.176Z,3.42
2023-03-02T07:55:22.731Z,10.19
2023-03-02T07:56:25.499Z,2.21
2023-03-02T07:57:28.079Z,4.63
2023-03-02T07:58:30.674Z,4.64
2023-03-02T07:59:33.256Z,2.58
2023-03-02T08:00:36.127Z,4.79
2023-03-02T08:01:38.704Z,9.20
2023-03-02T08:02:41.359Z,2.22
2023-03-02T08:03:44.121Z,6.89
2023-03-02T08:04:46.688Z,5.90
2023-03-02T08:05:49.607Z,5.09
2023-03-02T08:06:52.778Z,6.69
2023-03-02T08:07:55.323Z,4.42
2023-03-02T08:08:57.965Z,6.66
2023-03-02T08:10:00.631Z,3.96
2023-03-02T08:11:03.222Z,4.72
2023-03-02T08:12:05.782Z,5.25
2023-03-02T08:13:08.345Z,5.87
2023-03-02T08:14:10.877Z,5.91
2023-03-02T08:15:13.456Z,11.53
2023-03-02T08:16:16.226Z,3.89
2023-03-02T08:17:18.757Z,9.25
2023-03-02T08:18:21.346Z,6.01
2023-03-02T08:19:23.939Z,9.47
2023-03-02T08:20:26.805Z,6.37
2023-03-02T08:21:29.366Z,7.21
2023-03-02T08:22:31.921Z,11.17
2023-03-02T08:23:34.556Z,6.91
2023-03-02T08:24:37.273Z,6.18
2023-03-02T08:25:39.984Z,4.45
2023-03-02T08:26:42.534Z,6.03
2023-03-02T08:27:45.024Z,9.79
2023-03-02T08:28:47.588Z,6.39
2023-03-02T08:29:50.187Z,3.64
2023-03-02T08:30:52.964Z,9.67
2023-03-02T08:31:55.648Z,6.68
2023-03-02T08:32:58.286Z,8.21
2023-03-02T08:34:00.850Z,6.05
2023-03-02T08:35:03.275Z,4.77
2023-03-02T08:36:05.989Z,3.61
2023-03-02T08:37:08.644Z,5.62
2023-03-02T08:38:11.254Z,4.92
2023-03-02T08:39:13.795Z,5.93
2023-03-02T08:40:16.661Z,2.12
2023-03-02T08:41:19.232Z,3.01
2023-03-02T08:42:21.802Z,4.83
2023-03-02T08:43:24.363Z,3.74
2023-03-02T08:44:26.936Z,2.37
2023-03-02T08:45:29.511Z,5.85
2023-03-02T08:46:32.358Z,3.54
2023-03-02T08:47:34.947Z,3.26
2023-03-02T08:48:37.512Z,3.07
2023-03-02T08:49:40.084Z,4.71
2023-03-02T08:50:43.060Z,4.44
2023-03-02T08:51:45.641Z,4.21
2023-03-02T08:52:48.384Z,5.80
2023-03-02T08:53:50.981Z,4.49
2023-03-02T08:54:53.552Z,3.87
2023-03-02T08:55:56.080Z,3.43
2023-03-02T08:56:58.742Z,7.07
2023-03-02T08:58:01.328Z,3.64
2023-03-02T08:59:03.900Z,3.77
2023-03-02T09:00:06.892Z,3.61
2023-03-02T09:01:09.521Z,6.96
2023-03-02T09:02:12.372Z,6.96
2023-03-02T09:03:14.980Z,6.27
2023-03-02T09:04:17.563Z,5.18
2023-03-02T09:05:20.116Z,3.95
2023-03-02T09:06:22.772Z,4.12
2023-03-02T09:07:25.380Z,4.79
2023-03-02T09:08:28.185Z,3.83
2023-03-02T09:09:30.763Z,7.88
2023-03-02T09:10:33.426Z,3.56
2023-03-02T09:11:36.194Z,2.02
2023-03-02T09:12:39.184Z,2.67
2023-03-02T09:13:41.808Z,5.25
2023-03-02T09:14:44.333Z,3.36
2023-03-02T09:15:46.881Z,2.85
2023-03-02T09:16:49.484Z,3.67
2023-03-02T09:17:52.018Z,6.19
2023-03-02T09:18:54.609Z,4.61
2023-03-02T09:19:57.240Z,2.05
2023-03-02T09:21:00.105Z,2.58
2023-03-02T09:22:02.570Z,6.28
2023-03-02T09:23:05.288Z,7.63
2023-03-02T09:24:07.845Z,4.02
2023-03-02T09:25:10.413Z,6.35
2023-03-02T09:26:13.792Z,5.92
2023-03-02T09:27:16.453Z,3.05
2023-03-02T09:28:19.158Z,7.29
2023-03-02T09:29:21.762Z,6.55
2023-03-02T09:30:24.749Z,4.92
2023-03-02T09:31:29.828Z,2.03
2023-03-02T09:32:31.803Z,4.74
2023-03-02T09:33:34.346Z,7.25
2023-03-02T09:34:36.908Z,5.17
2023-03-02T09:35:39.459Z,4.27
2023-03-02T09:36:42.330Z,3.14
2023-03-02T09:37:44.970Z,7.67
2023-03-02T09:38:47.665Z,5.97
2023-03-02T09:39:50.275Z,2.41
2023-03-02T09:40:53.295Z,3.63
2023-03-02T09:41:55.860Z,5.61
2023-03-02T09:42:58.451Z,3.28
2023-03-02T09:44:01.004Z,5.03
2023-03-02T09:45:03.559Z,4.55
2023-03-02T09:46:06.407Z,3.41
2023-03-02T09:47:08.987Z,5.21
2023-03-02T09:48:11.551Z,4.31
2023-03-02T09:49:14.124Z,3.73
2023-03-02T09:50:16.966Z,7.52
2023-03-02T09:51:19.522Z,5.15
2023-03-02T09:52:22.094Z,6.83
2023-03-02T09:53:24.631Z,2.13
2023-03-02T09:54:27.309Z,5.65
2023-03-02T09:55:30.145Z,12.53
2023-03-02T09:56:33.262Z,4.62
2023-03-02T09:57:35.986Z,3.14
2023-03-02T09:58:38.610Z,4.38
2023-03-02T09:59:41.104Z,6.92
2023-03-02T10:00:43.996Z,2.86
2023-03-02T10:01:46.522Z,5.57
2023-03-02T10:02:49.144Z,8.50
2023-03-02T10:03:51.844Z,5.14
2023-03-02T10:04:54.822Z,8.24
2023-03-02T10:05:57.702Z,6.84
2023-03-02T10:07:00.379Z,4.10
2023-03-02T10:08:02.916Z,3.22
2023-03-02T10:09:05.674Z,6.87
2023-03-02T10:10:08.953Z,3.08
2023-03-02T10:11:11.546Z,3.84
2023-03-02T10:12:15.254Z,5.08
2023-03-02T10:13:17.843Z,3.73
2023-03-02T10:14:20.501Z,3.26
2023-03-02T10:15:23.044Z,4.41
2023-03-02T10:16:26.013Z,4.28
2023-03-02T10:17:28.516Z,3.32
2023-03-02T10:18:31.164Z,6.02
2023-03-02T10:19:33.744Z,3.50
2023-03-02T10:20:36.597Z,4.96
2023-03-02T10:21:39.160Z,3.43
2023-03-02T10:22:41.735Z,4.41
2023-03-02T10:23:44.306Z,3.06
2023-03-02T10:24:46.864Z,3.05
2023-03-02T10:25:49.443Z,2.76
2023-03-02T10:26:52.240Z,3.14
2023-03-02T10:27:54.963Z,4.96
2023-03-02T10:28:57.694Z,10.86
2023-03-02T10:30:00.270Z,10.56
2023-03-02T10:31:05.109Z,15.05
2023-03-02T10:32:07.395Z,8.03
2023-03-02T10:33:09.944Z,6.29
2023-03-02T10:34:12.449Z,6.57
2023-03-02T10:35:15.211Z,7.07
2023-03-02T10:36:20.462Z,6.74
2023-03-02T10:37:22.531Z,7.72
2023-03-02T10:38:25.081Z,4.94
2023-03-02T10:39:27.680Z,7.79
2023-03-02T10:40:30.380Z,7.43
2023-03-02T10:41:33.000Z,5.31
2023-03-02T10:42:35.586Z,6.83
2023-03-02T10:43:38.156Z,4.55
2023-03-02T10:44:40.768Z,4.15
2023-03-02T10:45:43.365Z,4.29
2023-03-02T10:46:46.113Z,5.23
2023-03-02T10:47:48.683Z,3.37
2023-03-02T10:48:51.157Z,4.75
2023-03-02T10:49:53.700Z,5.04
2023-03-02T10:50:56.471Z,3.90
2023-03-02T10:51:59.046Z,7.59
2023-03-02T10:53:04.158Z,5.15
2023-03-02T10:54:06.007Z,6.49
2023-03-02T10:55:08.566Z,3.07
2023-03-02T10:56:11.978Z,5.25
2023-03-02T10:57:14.989Z,3.64
2023-03-02T10:58:17.559Z,4.19
2023-03-02T10:59:20.094Z,2.33
2023-03-02T11:00:22.859Z,5.01
2023-03-02T11:01:25.527Z,2.79
2023-03-02T11:02:28.104Z,4.59
2023-03-02T11:03:30.672Z,3.40
2023-03-02T11:04:33.293Z,4.54
2023-03-02T11:05:35.918Z,5.82
2023-03-02T11:06:39.223Z,7.09
2023-03-02T11:07:41.991Z,3.67
2023-03-02T11:08:44.551Z,4.61
2023-03-02T11:09:47.113Z,5.55
2023-03-02T11:10:49.882Z,4.03
2023-03-02T11:11:52.728Z,3.39
2023-03-02T11:12:55.674Z,4.47
2023-03-02T11:13:58.231Z,6.01
2023-03-02T11:15:00.895Z,5.33
2023-03-02T11:16:03.457Z,2.89
2023-03-02T11:17:06.282Z,3.29
2023-03-02T11:18:08.873Z,7.25
2023-03-02T11:19:11.431Z,3.93
2023-03-02T11:20:14.528Z,2.77
2023-03-02T11:21:17.096Z,8.73
2023-03-02T11:22:19.694Z,2.18
2023-03-02T11:23:22.252Z,3.80
2023-03-02T11:24:24.815Z,3.11
2023-03-02T11:25:27.382Z,3.66
2023-03-02T11:26:30.226Z,2.26
2023-03-02T11:27:32.904Z,5.07
2023-03-02T11:28:35.476Z,8.77
2023-03-02T11:29:38.031Z,5.31
2023-03-02T11:30:40.597Z,4.51
2023-03-02T11:31:43.295Z,6.55
2023-03-02T11:32:46.086Z,7.45
2023-03-02T11:33:48.985Z,5.54
2023-03-02T11:34:51.598Z,7.43
2023-03-02T11:35:54.209Z,4.37
2023-03-02T11:36:57.461Z,4.62
2023-03-02T11:38:00.089Z,8.75
2023-03-02T11:39:02.623Z,2.07
2023-03-02T11:40:05.287Z,2.87
2023-03-02T11:41:07.881Z,2.45
2023-03-02T11:42:10.459Z,1.79
2023-03-02T11:43:13.036Z,1.53
2023-03-02T11:44:15.614Z,3.60
2023-03-02T11:45:18.163Z,1.47
2023-03-02T11:46:22.298Z,3.76
2023-03-02T11:47:25.437Z,3.39
2023-03-02T11:48:28.196Z,2.45
2023-03-02T11:49:30.743Z,9.49
2023-03-02T11:50:33.544Z,3.50
2023-03-02T11:51:36.888Z,7.85
2023-03-02T11:52:40.373Z,4.42
2023-03-02T11:53:43.029Z,5.51
2023-03-02T11:54:45.749Z,3.31
2023-03-02T11:55:48.302Z,4.45
2023-03-02T11:56:51.059Z,5.38
2023-03-02T11:57:54.024Z,7.26
2023-03-02T11:58:56.602Z,6.55
2023-03-02T11:59:59.238Z,6.10
2023-03-02T12:01:02.008Z,2.39
2023-03-02T12:02:04.667Z,4.90
2023-03-02T12:03:07.625Z,4.61
2023-03-02T12:04:10.242Z,3.45
2023-03-02T12:05:12.833Z,5.71
2023-03-02T12:06:15.678Z,5.03
2023-03-02T12:07:18.236Z,4.77
2023-03-02T12:08:20.800Z,3.69
2023-03-02T12:09:23.539Z,6.42
2023-03-02T12:10:26.684Z,4.49
2023-03-02T12:11:29.241Z,7.15
2023-03-02T12:12:31.790Z,3.63
2023-03-02T12:13:34.351Z,4.81
2023-03-02T12:14:36.998Z,5.77
2023-03-02T12:15:39.592Z,4.91
2023-03-02T12:16:42.413Z,8.02
2023-03-02T12:17:45.279Z,6.11
2023-03-02T12:18:47.991Z,6.87
2023-03-02T12:19:50.578Z,6.47
2023-03-02T12:20:53.671Z,8.22
2023-03-02T12:21:56.230Z,5.22
2023-03-02T12:22:59.354Z,4.34
2023-03-02T12:24:02.317Z,6.50
2023-03-02T12:25:04.913Z,6.97
2023-03-02T12:26:07.891Z,7.91
2023-03-02T12:27:10.445Z,6.73
2023-03-02T12:28:13.047Z,4.23
2023-03-02T12:29:16.021Z,5.22
2023-03-02T12:30:19.016Z,5.22
2023-03-02T12:31:21.605Z,2.30
2023-03-02T12:32:24.296Z,6.57
2023-03-02T12:33:26.911Z,7.27
2023-03-02T12:34:30.841Z,3.21
2023-03-02T12:35:33.925Z,3.98
2023-03-02T12:36:37.085Z,5.81
2023-03-02T12:37:39.669Z,9.53
2023-03-02T12:38:42.294Z,6.58
2023-03-02T12:39:45.243Z,9.54
2023-03-02T12:40:48.062Z,8.64
2023-03-02T12:41:50.635Z,16.42
2023-03-02T12:42:53.305Z,15.53
2023-03-02T12:43:56.072Z,8.56
2023-03-02T12:44:58.719Z,4.31
2023-03-02T12:46:01.435Z,3.08
2023-03-02T12:47:04.151Z,5.35
2023-03-02T12:48:06.953Z,6.90
2023-03-02T12:49:11.014Z,7.74
2023-03-02T12:50:14.850Z,4.57
2023-03-02T12:51:17.528Z,5.67
2023-03-02T12:52:22.166Z,4.12
2023-03-02T12:53:24.641Z,4.96
2023-03-02T12:54:27.148Z,4.99
2023-03-02T12:55:29.757Z,10.85
2023-03-02T12:56:32.426Z,5.92
2023-03-02T12:57:34.946Z,5.09
2023-03-02T12:58:37.646Z,5.66
2023-03-02T12:59:40.241Z,8.50
2023-03-02T13:00:43.114Z,7.29
2023-03-02T13:01:45.677Z,7.57
2023-03-02T13:02:48.306Z,6.16
2023-03-02T13:03:51.141Z,4.29
2023-03-02T13:04:53.967Z,9.61
2023-03-02T13:05:56.671Z,6.03
2023-03-02T13:06:59.398Z,7.69
2023-03-02T13:08:01.986Z,3.77
2023-03-02T13:09:04.579Z,8.81
2023-03-02T13:10:07.733Z,8.79
2023-03-02T13:11:10.350Z,5.98
2023-03-02T13:12:12.893Z,3.95
2023-03-02T13:13:15.502Z,4.85
2023-03-02T13:14:18.031Z,4.19
2023-03-02T13:15:20.571Z,6.04
2023-03-02T13:16:23.524Z,3.09
2023-03-02T13:17:26.482Z,5.05
2023-03-02T13:18:29.041Z,2.91
2023-03-02T13:19:31.746Z,3.70
2023-03-02T13:20:34.406Z,5.42
2023-03-02T13:21:36.969Z,6.97
2023-03-02T13:22:39.545Z,4.41
2023-03-02T13:23:42.445Z,4.39
2023-03-02T13:24:45.019Z,9.64
2023-03-02T13:25:47.593Z,5.98
2023-03-02T13:26:50.361Z,6.71
2023-03-02T13:27:53.024Z,6.89
2023-03-02T13:28:55.739Z,5.01
2023-03-02T13:29:58.433Z,7.48
2023-03-02T13:31:01.210Z,4.27
2023-03-02T13:32:03.826Z,4.65
2023-03-02T13:33:06.374Z,6.90
2023-03-02T13:34:08.928Z,7.81
2023-03-02T13:35:11.492Z,6.63
2023-03-02T13:36:14.762Z,6.02
2023-03-02T13:37:17.337Z,8.59
2023-03-02T13:38:19.907Z,6.99
2023-03-02T13:39:22.485Z,11.31
2023-03-02T13:40:25.136Z,5.65
2023-03-02T13:41:27.764Z,6.80
2023-03-02T13:42:30.255Z,7.94
2023-03-02T13:43:32.858Z,6.84
2023-03-02T13:44:35.421Z,5.23
2023-03-02T13:45:37.990Z,7.87
2023-03-02T13:46:42.318Z,10.13